sensor_id;sensor_type;location;lat;lon;timestamp;P1;durP1;ratioP1;P2;durP2;ratioP2
16296;SDS011;8256;56.144;13.394;2023-04-03T00:00:48;0.57;;;0.57;;
16296;SDS011;8256;56.144;13.394;2023-04-03T00:03:35;0.00;;;0.00;;
16296;SDS011;8256;56.144;13.394;2023-04-03T00:06:21;0.00;;;0.00;;
16296;SDS011;8256;56.144;13.394;2023-04-03T00:09:06;0.00;;;0.00;;
16296;SDS011;8256;56.144;13.394;2023-04-03T00:11:52;0.00;;;0.00;;
16296;SDS011;8256;56.144;13.394;2023-04-03T00:14:37;0.00;;;0.00;;
16296;SDS011;8256;56.144;13.394;2023-04-03T00:17:23;0.00;;;0.00;;
16296;SDS011;8256;56.144;13.394;2023-04-03T00:20:09;0.20;;;0.10;;
16296;SDS011;8256;56.144;13.394;2023-04-03T00:22:54;0.28;;;0.25;;
16296;SDS011;8256;56.144;13.394;2023-04-03T00:25:40;0.00;;;0.00;;
16296;SDS011;8256;56.144;13.394;2023-04-03T00:28:26;0.00;;;0.00;;
16296;SDS011;8256;56.144;13.394;2023-04-03T00:31:13;0.00;;;0.00;;
16296;SDS011;8256;56.144;13.394;2023-04-03T00:33:59;0.00;;;0.00;;
16296;SDS011;8256;56.144;13.394;2023-04-03T00:36:45;0.00;;;0.00;;
16296;SDS011;8256;56.144;13.394;2023-04-03T00:39:30;0.00;;;0.00;;
16296;SDS011;8256;56.144;13.394;2023-04-03T00:42:16;0.00;;;0.00;;
16296;SDS011;8256;56.144;13.394;2023-04-03T00:47:47;0.40;;;0.30;;
16296;SDS011;8256;56.144;13.394;2023-04-03T00:50:34;0.00;;;0.00;;
16296;SDS011;8256;56.144;13.394;2023-04-03T00:53:22;0.00;;;0.00;;
16296;SDS011;8256;56.144;13.394;2023-04-03T00:56:09;0.00;;;0.00;;
16296;SDS011;8256;56.144;13.394;2023-04-03T00:58:58;0.00;;;0.00;;
16296;SDS011;8256;56.144;13.394;2023-04-03T01:01:44;0.00;;;0.00;;
16296;SDS011;8256;56.144;13.394;2023-04-03T01:04:34;0.00;;;0.00;;
16296;SDS011;8256;56.144;13.394;2023-04-03T01:07:22;0.47;;;0.30;;
16296;SDS011;8256;56.144;13.394;2023-04-03T01:10:09;0.00;;;0.00;;
16296;SDS011;8256;56.144;13.394;2023-04-03T01:12:55;0.00;;;0.00;;
16296;SDS011;8256;56.144;13.394;2023-04-03T01:15:41;0.00;;;0.00;;
16296;SDS011;8256;56.144;13.394;2023-04-03T01:18:27;0.00;;;0.00;;
16296;SDS011;8256;56.144;13.394;2023-04-03T01:24:07;0.00;;;0.00;;
16296;SDS011;8256;56.144;13.394;2023-04-03T01:26:57;0.00;;;0.00;;
16296;SDS011;8256;56.144;13.394;2023-04-03T01:29:42;0.00;;;0.00;;
16296;SDS011;8256;56.144;13.394;2023-04-03T01:32:28;0.00;;;0.00;;
16296;SDS011;8256;56.144;13.394;2023-04-03T01:35:14;0.00;;;0.00;;
16296;SDS011;8256;56.144;13.394;2023-04-03T01:38:00;0.00;;;0.00;;
16296;SDS011;8256;56.144;13.394;2023-04-03T01:40:45;0.00;;;0.00;;
16296;SDS011;8256;56.144;13.394;2023-04-03T01:43:31;0.00;;;0.00;;
16296;SDS011;8256;56.144;13.394;2023-04-03T01:46:17;0.00;;;0.00;;
16296;SDS011;8256;56.144;13.394;2023-04-03T01:49:03;0.10;;;0.00;;
16296;SDS011;8256;56.144;13.394;2023-04-03T01:51:49;0.00;;;0.00;;
16296;SDS011;8256;56.144;13.394;2023-04-03T01:54:34;0.00;;;0.00;;
16296;SDS011;8256;56.144;13.394;2023-04-03T01:57:20;0.00;;;0.00;;
16296;SDS011;8256;56.144;13.394;2023-04-03T02:00:05;0.00;;;0.00;;
16296;SDS011;8256;56.144;13.394;2023-04-03T02:02:53;0.05;;;0.00;;
16296;SDS011;8256;56.144;13.394;2023-04-03T02:05:38;0.00;;;0.00;;
16296;SDS011;8256;56.144;13.394;2023-04-03T02:08:24;0.00;;;0.00;;
16296;SDS011;8256;56.144;13.394;2023-04-03T02:11:09;0.00;;;0.00;;
16296;SDS011;8256;56.144;13.394;2023-04-03T02:13:55;0.00;;;0.00;;
16296;SDS011;8256;56.144;13.394;2023-04-03T02:16:40;0.00;;;0.00;;
16296;SDS011;8256;56.144;13.394;2023-04-03T02:19:26;0.00;;;0.00;;
16296;SDS011;8256;56.144;13.394;2023-04-03T02:22:12;0.00;;;0.00;;
16296;SDS011;8256;56.144;13.394;2023-04-03T02:24:57;0.00;;;0.00;;
16296;SDS011;8256;56.144;13.394;2023-04-03T02:27:43;0.00;;;0.00;;
16296;SDS011;8256;56.144;13.394;2023-04-03T02:30:28;0.00;;;0.00;;
16296;SDS011;8256;56.144;13.394;2023-04-03T02:33:14;0.00;;;0.00;;
16296;SDS011;8256;56.144;13.394;2023-04-03T02:35:59;0.00;;;0.00;;
16296;SDS011;8256;56.144;13.394;2023-04-03T02:38:45;0.57;;;0.55;;
16296;SDS011;8256;56.144;13.394;2023-04-03T02:41:31;0.00;;;0.00;;
16296;SDS011;8256;56.144;13.394;2023-04-03T02:44:20;0.10;;;0.00;;
16296;SDS011;8256;56.144;13.394;2023-04-03T02:47:06;0.00;;;0.00;;
16296;SDS011;8256;56.144;13.394;2023-04-03T02:49:51;0.00;;;0.00;;
16296;SDS011;8256;56.144;13.394;2023-04-03T02:52:38;0.00;;;0.00;;
16296;SDS011;8256;56.144;13.394;2023-04-03T02:55:23;0.00;;;0.00;;
16296;SDS011;8256;56.144;13.394;2023-04-03T02:58:09;0.00;;;0.00;;
16296;SDS011;8256;56.144;13.394;2023-04-03T03:00:54;0.00;;;0.00;;
16296;SDS011;8256;56.144;13.394;2023-04-03T03:03:40;0.00;;;0.00;;
16296;SDS011;8256;56.144;13.394;2023-04-03T03:06:25;0.00;;;0.00;;
16296;SDS011;8256;56.144;13.394;2023-04-03T03:09:11;0.00;;;0.00;;
16296;SDS011;8256;56.144;13.394;2023-04-03T03:11:57;0.00;;;0.00;;
16296;SDS011;8256;56.144;13.394;2023-04-03T03:14:43;0.00;;;0.00;;
16296;SDS011;8256;56.144;13.394;2023-04-03T03:17:28;0.00;;;0.00;;
16296;SDS011;8256;56.144;13.394;2023-04-03T03:20:14;0.00;;;0.00;;
16296;SDS011;8256;56.144;13.394;2023-04-03T03:23:03;0.00;;;0.00;;
16296;SDS011;8256;56.144;13.394;2023-04-03T03:25:48;0.00;;;0.00;;
16296;SDS011;8256;56.144;13.394;2023-04-03T03:28:34;0.00;;;0.00;;
16296;SDS011;8256;56.144;13.394;2023-04-03T03:31:21;0.00;;;0.00;;
16296;SDS011;8256;56.144;13.394;2023-04-03T03:34:07;0.00;;;0.00;;
16296;SDS011;8256;56.144;13.394;2023-04-03T03:36:52;0.13;;;0.00;;
16296;SDS011;8256;56.144;13.394;2023-04-03T03:39:38;0.00;;;0.00;;
16296;SDS011;8256;56.144;13.394;2023-04-03T03:42:23;0.00;;;0.00;;
16296;SDS011;8256;56.144;13.394;2023-04-03T03:45:09;0.00;;;0.00;;
16296;SDS011;8256;56.144;13.394;2023-04-03T03:47:54;0.00;;;0.00;;
16296;SDS011;8256;56.144;13.394;2023-04-03T03:50:40;0.00;;;0.00;;
16296;SDS011;8256;56.144;13.394;2023-04-03T03:53:25;0.00;;;0.00;;
16296;SDS011;8256;56.144;13.394;2023-04-03T03:56:11;0.00;;;0.00;;
16296;SDS011;8256;56.144;13.394;2023-04-03T03:58:56;0.00;;;0.00;;
16296;SDS011;8256;56.144;13.394;2023-04-03T04:01:42;0.00;;;0.00;;
16296;SDS011;8256;56.144;13.394;2023-04-03T04:04:28;0.00;;;0.00;;
16296;SDS011;8256;56.144;13.394;2023-04-03T04:07:13;0.00;;;0.00;;
16296;SDS011;8256;56.144;13.394;2023-04-03T04:09:59;0.00;;;0.00;;
16296;SDS011;8256;56.144;13.394;2023-04-03T04:12:44;0.00;;;0.00;;
16296;SDS011;8256;56.144;13.394;2023-04-03T04:15:30;0.00;;;0.00;;
16296;SDS011;8256;56.144;13.394;2023-04-03T04:18:16;0.00;;;0.00;;
16296;SDS011;8256;56.144;13.394;2023-04-03T04:21:03;0.00;;;0.00;;
16296;SDS011;8256;56.144;13.394;2023-04-03T04:23:48;0.00;;;0.00;;
16296;SDS011;8256;56.144;13.394;2023-04-03T04:26:34;0.00;;;0.00;;
16296;SDS011;8256;56.144;13.394;2023-04-03T04:29:19;0.00;;;0.00;;
16296;SDS011;8256;56.144;13.394;2023-04-03T04:32:05;0.00;;;0.00;;
16296;SDS011;8256;56.144;13.394;2023-04-03T04:34:51;0.00;;;0.00;;
16296;SDS011;8256;56.144;13.394;2023-04-03T04:37:36;0.00;;;0.00;;
16296;SDS011;8256;56.144;13.394;2023-04-03T04:40:22;0.00;;;0.00;;
16296;SDS011;8256;56.144;13.394;2023-04-03T04:43:07;0.00;;;0.00;;
16296;SDS011;8256;56.144;13.394;2023-04-03T04:46:14;0.00;;;0.00;;
16296;SDS011;8256;56.144;13.394;2023-04-03T04:48:59;0.00;;;0.00;;
16296;SDS011;8256;56.144;13.394;2023-04-03T04:51:44;0.00;;;0.00;;
16296;SDS011;8256;56.144;13.394;2023-04-03T04:54:30;0.00;;;0.00;;
16296;SDS011;8256;56.144;13.394;2023-04-03T04:57:15;0.00;;;0.00;;
16296;SDS011;8256;56.144;13.394;2023-04-03T05:00:01;0.00;;;0.00;;
16296;SDS011;8256;56.144;13.394;2023-04-03T05:02:46;0.00;;;0.00;;
16296;SDS011;8256;56.144;13.394;2023-04-03T05:05:32;0.00;;;0.00;;
16296;SDS011;8256;56.144;13.394;2023-04-03T05:08:17;0.10;;;0.03;;
16296;SDS011;8256;56.144;13.394;2023-04-03T05:11:03;0.00;;;0.00;;
16296;SDS011;8256;56.144;13.394;2023-04-03T05:13:49;0.00;;;0.00;;
16296;SDS011;8256;56.144;13.394;2023-04-03T05:16:34;2.17;;;0.80;;
16296;SDS011;8256;56.144;13.394;2023-04-03T05:19:20;0.00;;;0.00;;
16296;SDS011;8256;56.144;13.394;2023-04-03T05:22:06;0.00;;;0.00;;
16296;SDS011;8256;56.144;13.394;2023-04-03T05:24:51;0.00;;;0.00;;
16296;SDS011;8256;56.144;13.394;2023-04-03T05:27:37;0.00;;;0.00;;
16296;SDS011;8256;56.144;13.394;2023-04-03T05:30:22;0.00;;;0.00;;
16296;SDS011;8256;56.144;13.394;2023-04-03T05:33:08;0.00;;;0.00;;
16296;SDS011;8256;56.144;13.394;2023-04-03T05:35:54;0.00;;;0.00;;
16296;SDS011;8256;56.144;13.394;2023-04-03T05:38:39;0.00;;;0.00;;
16296;SDS011;8256;56.144;13.394;2023-04-03T05:41:25;0.00;;;0.00;;
16296;SDS011;8256;56.144;13.394;2023-04-03T05:44:10;0.10;;;0.00;;
16296;SDS011;8256;56.144;13.394;2023-04-03T05:46:56;0.63;;;0.10;;
16296;SDS011;8256;56.144;13.394;2023-04-03T05:49:41;0.00;;;0.00;;
16296;SDS011;8256;56.144;13.394;2023-04-03T05:52:32;0.00;;;0.00;;
16296;SDS011;8256;56.144;13.394;2023-04-03T05:55:18;0.00;;;0.00;;
16296;SDS011;8256;56.144;13.394;2023-04-03T05:58:03;0.03;;;0.00;;
16296;SDS011;8256;56.144;13.394;2023-04-03T06:00:49;0.00;;;0.00;;
16296;SDS011;8256;56.144;13.394;2023-04-03T06:03:35;0.00;;;0.00;;
16296;SDS011;8256;56.144;13.394;2023-04-03T06:06:20;0.00;;;0.00;;
16296;SDS011;8256;56.144;13.394;2023-04-03T06:09:07;0.00;;;0.00;;
16296;SDS011;8256;56.144;13.394;2023-04-03T06:11:53;0.00;;;0.00;;
16296;SDS011;8256;56.144;13.394;2023-04-03T06:14:39;0.00;;;0.00;;
16296;SDS011;8256;56.144;13.394;2023-04-03T06:17:24;0.03;;;0.00;;
16296;SDS011;8256;56.144;13.394;2023-04-03T06:20:10;0.00;;;0.00;;
16296;SDS011;8256;56.144;13.394;2023-04-03T06:22:56;0.00;;;0.00;;
16296;SDS011;8256;56.144;13.394;2023-04-03T06:25:42;0.10;;;0.00;;
16296;SDS011;8256;56.144;13.394;2023-04-03T06:28:27;0.00;;;0.00;;
16296;SDS011;8256;56.144;13.394;2023-04-03T06:31:13;0.90;;;0.35;;
16296;SDS011;8256;56.144;13.394;2023-04-03T06:33:58;0.00;;;0.00;;
16296;SDS011;8256;56.144;13.394;2023-04-03T06:36:44;0.00;;;0.00;;
16296;SDS011;8256;56.144;13.394;2023-04-03T06:39:34;0.00;;;0.00;;
16296;SDS011;8256;56.144;13.394;2023-04-03T06:42:20;0.00;;;0.00;;
16296;SDS011;8256;56.144;13.394;2023-04-03T06:45:06;0.00;;;0.00;;
16296;SDS011;8256;56.144;13.394;2023-04-03T06:47:53;0.00;;;0.00;;
16296;SDS011;8256;56.144;13.394;2023-04-03T06:50:38;0.00;;;0.00;;
16296;SDS011;8256;56.144;13.394;2023-04-03T06:53:24;0.00;;;0.00;;
16296;SDS011;8256;56.144;13.394;2023-04-03T06:56:10;0.00;;;0.00;;
16296;SDS011;8256;56.144;13.394;2023-04-03T06:58:56;0.00;;;0.00;;
16296;SDS011;8256;56.144;13.394;2023-04-03T07:01:42;0.00;;;0.00;;
16296;SDS011;8256;56.144;13.394;2023-04-03T07:04:28;0.00;;;0.00;;
16296;SDS011;8256;56.144;13.394;2023-04-03T07:07:14;0.10;;;0.00;;
16296;SDS011;8256;56.144;13.394;2023-04-03T07:10:00;0.20;;;0.00;;
16296;SDS011;8256;56.144;13.394;2023-04-03T07:12:45;0.00;;;0.00;;
16296;SDS011;8256;56.144;13.394;2023-04-03T07:15:31;0.00;;;0.00;;
16296;SDS011;8256;56.144;13.394;2023-04-03T07:18:16;0.05;;;0.00;;
16296;SDS011;8256;56.144;13.394;2023-04-03T07:21:03;0.00;;;0.00;;
16296;SDS011;8256;56.144;13.394;2023-04-03T07:23:49;0.00;;;0.00;;
16296;SDS011;8256;56.144;13.394;2023-04-03T07:26:34;0.00;;;0.00;;
16296;SDS011;8256;56.144;13.394;2023-04-03T07:29:20;0.00;;;0.00;;
16296;SDS011;8256;56.144;13.394;2023-04-03T07:32:06;0.00;;;0.00;;
16296;SDS011;8256;56.144;13.394;2023-04-03T07:34:52;0.00;;;0.00;;
16296;SDS011;8256;56.144;13.394;2023-04-03T07:37:37;0.00;;;0.00;;
16296;SDS011;8256;56.144;13.394;2023-04-03T07:40:23;0.00;;;0.00;;
16296;SDS011;8256;56.144;13.394;2023-04-03T07:43:08;0.00;;;0.00;;
16296;SDS011;8256;56.144;13.394;2023-04-03T07:45:54;0.00;;;0.00;;
16296;SDS011;8256;56.144;13.394;2023-04-03T07:48:40;0.03;;;0.00;;
16296;SDS011;8256;56.144;13.394;2023-04-03T07:51:25;0.00;;;0.00;;
16296;SDS011;8256;56.144;13.394;2023-04-03T07:54:12;0.00;;;0.00;;
16296;SDS011;8256;56.144;13.394;2023-04-03T07:56:57;0.00;;;0.00;;
16296;SDS011;8256;56.144;13.394;2023-04-03T07:59:43;0.00;;;0.00;;
16296;SDS011;8256;56.144;13.394;2023-04-03T08:02:28;0.15;;;0.00;;
16296;SDS011;8256;56.144;13.394;2023-04-03T08:05:14;0.10;;;0.00;;
16296;SDS011;8256;56.144;13.394;2023-04-03T08:07:59;0.00;;;0.00;;
16296;SDS011;8256;56.144;13.394;2023-04-03T08:10:48;0.00;;;0.00;;
16296;SDS011;8256;56.144;13.394;2023-04-03T08:13:34;0.00;;;0.00;;
16296;SDS011;8256;56.144;13.394;2023-04-03T08:16:21;0.00;;;0.00;;
16296;SDS011;8256;56.144;13.394;2023-04-03T08:19:07;0.00;;;0.00;;
16296;SDS011;8256;56.144;13.394;2023-04-03T08:21:53;0.00;;;0.00;;
16296;SDS011;8256;56.144;13.394;2023-04-03T08:24:39;0.00;;;0.00;;
16296;SDS011;8256;56.144;13.394;2023-04-03T08:27:25;0.00;;;0.00;;
16296;SDS011;8256;56.144;13.394;2023-04-03T08:30:12;0.10;;;0.00;;
16296;SDS011;8256;56.144;13.394;2023-04-03T08:33:00;0.00;;;0.00;;
16296;SDS011;8256;56.144;13.394;2023-04-03T08:35:45;0.00;;;0.00;;
16296;SDS011;8256;56.144;13.394;2023-04-03T08:38:31;0.00;;;0.00;;
16296;SDS011;8256;56.144;13.394;2023-04-03T08:41:29;0.00;;;0.00;;
16296;SDS011;8256;56.144;13.394;2023-04-03T08:49:58;0.10;;;0.00;;
16296;SDS011;8256;56.144;13.394;2023-04-03T08:52:46;0.17;;;0.00;;
16296;SDS011;8256;56.144;13.394;2023-04-03T08:55:33;0.10;;;0.00;;
16296;SDS011;8256;56.144;13.394;2023-04-03T08:58:27;0.00;;;0.00;;
16296;SDS011;8256;56.144;13.394;2023-04-03T09:01:19;0.00;;;0.00;;
16296;SDS011;8256;56.144;13.394;2023-04-03T09:04:09;0.10;;;0.00;;
16296;SDS011;8256;56.144;13.394;2023-04-03T09:06:57;0.00;;;0.00;;
16296;SDS011;8256;56.144;13.394;2023-04-03T09:09:44;0.10;;;0.00;;
16296;SDS011;8256;56.144;13.394;2023-04-03T09:12:34;0.00;;;0.00;;
16296;SDS011;8256;56.144;13.394;2023-04-03T09:15:23;0.03;;;0.00;;
16296;SDS011;8256;56.144;13.394;2023-04-03T09:21:08;0.00;;;0.00;;
16296;SDS011;8256;56.144;13.394;2023-04-03T09:23:58;0.40;;;0.20;;
16296;SDS011;8256;56.144;13.394;2023-04-03T09:26:46;0.00;;;0.00;;
16296;SDS011;8256;56.144;13.394;2023-04-03T09:29:35;0.10;;;0.00;;
16296;SDS011;8256;56.144;13.394;2023-04-03T09:32:27;0.00;;;0.00;;
16296;SDS011;8256;56.144;13.394;2023-04-03T09:41:04;0.20;;;0.00;;
16296;SDS011;8256;56.144;13.394;2023-04-03T09:43:53;0.00;;;0.00;;
16296;SDS011;8256;56.144;13.394;2023-04-03T09:46:39;0.10;;;0.00;;
16296;SDS011;8256;56.144;13.394;2023-04-03T09:49:25;0.15;;;0.00;;
16296;SDS011;8256;56.144;13.394;2023-04-03T09:52:24;0.20;;;0.00;;
16296;SDS011;8256;56.144;13.394;2023-04-03T09:55:13;0.20;;;0.00;;
16296;SDS011;8256;56.144;13.394;2023-04-03T09:58:00;0.20;;;0.00;;
16296;SDS011;8256;56.144;13.394;2023-04-03T10:00:53;0.10;;;0.00;;
16296;SDS011;8256;56.144;13.394;2023-04-03T10:03:39;0.00;;;0.00;;
16296;SDS011;8256;56.144;13.394;2023-04-03T10:06:33;0.10;;;0.00;;
16296;SDS011;8256;56.144;13.394;2023-04-03T10:09:22;0.20;;;0.00;;
16296;SDS011;8256;56.144;13.394;2023-04-03T10:12:09;0.20;;;0.00;;
16296;SDS011;8256;56.144;13.394;2023-04-03T10:14:58;0.20;;;0.00;;
16296;SDS011;8256;56.144;13.394;2023-04-03T10:21:02;0.20;;;0.00;;
16296;SDS011;8256;56.144;13.394;2023-04-03T10:23:54;0.20;;;0.00;;
16296;SDS011;8256;56.144;13.394;2023-04-03T10:26:52;0.20;;;0.00;;
16296;SDS011;8256;56.144;13.394;2023-04-03T10:39:04;0.28;;;0.00;;
16296;SDS011;8256;56.144;13.394;2023-04-03T10:42:06;0.13;;;0.00;;
16296;SDS011;8256;56.144;13.394;2023-04-03T10:44:36;0.20;;;0.00;;
16296;SDS011;8256;56.144;13.394;2023-04-03T10:47:46;0.13;;;0.00;;
16296;SDS011;8256;56.144;13.394;2023-04-03T10:50:54;0.20;;;0.00;;
16296;SDS011;8256;56.144;13.394;2023-04-03T10:53:44;0.20;;;0.00;;
16296;SDS011;8256;56.144;13.394;2023-04-03T10:56:37;0.30;;;0.10;;
16296;SDS011;8256;56.144;13.394;2023-04-03T10:59:28;0.10;;;0.00;;
16296;SDS011;8256;56.144;13.394;2023-04-03T11:08:27;0.40;;;0.10;;
16296;SDS011;8256;56.144;13.394;2023-04-03T11:11:47;0.20;;;0.00;;
16296;SDS011;8256;56.144;13.394;2023-04-03T11:14:35;0.25;;;0.00;;
16296;SDS011;8256;56.144;13.394;2023-04-03T11:17:31;0.47;;;0.22;;
16296;SDS011;8256;56.144;13.394;2023-04-03T11:20:29;0.00;;;0.00;;
16296;SDS011;8256;56.144;13.394;2023-04-03T11:23:21;0.10;;;0.00;;
16296;SDS011;8256;56.144;13.394;2023-04-03T11:26:11;0.40;;;0.10;;
16296;SDS011;8256;56.144;13.394;2023-04-03T11:28:59;0.20;;;0.00;;
16296;SDS011;8256;56.144;13.394;2023-04-03T11:31:56;0.30;;;0.00;;
16296;SDS011;8256;56.144;13.394;2023-04-03T11:34:46;0.20;;;0.00;;
16296;SDS011;8256;56.144;13.394;2023-04-03T11:37:33;0.30;;;0.00;;
16296;SDS011;8256;56.144;13.394;2023-04-03T11:40:22;0.30;;;0.00;;
16296;SDS011;8256;56.144;13.394;2023-04-03T11:43:21;0.30;;;0.05;;
16296;SDS011;8256;56.144;13.394;2023-04-03T11:46:07;0.28;;;0.00;;
16296;SDS011;8256;56.144;13.394;2023-04-03T11:48:53;0.30;;;0.00;;
16296;SDS011;8256;56.144;13.394;2023-04-03T11:51:41;0.40;;;0.10;;
16296;SDS011;8256;56.144;13.394;2023-04-03T11:54:34;0.30;;;0.00;;
16296;SDS011;8256;56.144;13.394;2023-04-03T12:00:45;0.30;;;0.00;;
16296;SDS011;8256;56.144;13.394;2023-04-03T12:12:28;0.30;;;0.00;;
16296;SDS011;8256;56.144;13.394;2023-04-03T12:15:25;0.30;;;0.00;;
16296;SDS011;8256;56.144;13.394;2023-04-03T12:21:17;0.82;;;0.40;;
16296;SDS011;8256;56.144;13.394;2023-04-03T12:29:55;0.50;;;0.20;;
16296;SDS011;8256;56.144;13.394;2023-04-03T12:35:37;0.45;;;0.10;;
16296;SDS011;8256;56.144;13.394;2023-04-03T12:41:43;0.30;;;0.00;;
16296;SDS011;8256;56.144;13.394;2023-04-03T12:47:24;0.30;;;0.00;;
16296;SDS011;8256;56.144;13.394;2023-04-03T12:53:25;0.30;;;0.00;;
16296;SDS011;8256;56.144;13.394;2023-04-03T12:59:16;0.28;;;0.00;;
16296;SDS011;8256;56.144;13.394;2023-04-03T13:02:09;0.40;;;0.10;;
16296;SDS011;8256;56.144;13.394;2023-04-03T13:04:59;0.50;;;0.10;;
16296;SDS011;8256;56.144;13.394;2023-04-03T13:07:49;0.40;;;0.10;;
16296;SDS011;8256;56.144;13.394;2023-04-03T13:10:49;0.80;;;0.20;;
16296;SDS011;8256;56.144;13.394;2023-04-03T13:13:36;1.08;;;0.30;;
16296;SDS011;8256;56.144;13.394;2023-04-03T13:16:22;1.85;;;0.43;;
16296;SDS011;8256;56.144;13.394;2023-04-03T13:19:15;1.40;;;0.30;;
16296;SDS011;8256;56.144;13.394;2023-04-03T13:22:05;1.73;;;0.50;;
16296;SDS011;8256;56.144;13.394;2023-04-03T13:24:52;2.13;;;0.60;;
16296;SDS011;8256;56.144;13.394;2023-04-03T13:27:39;2.00;;;0.60;;
16296;SDS011;8256;56.144;13.394;2023-04-03T13:30:32;2.30;;;0.70;;
16296;SDS011;8256;56.144;13.394;2023-04-03T13:33:20;2.17;;;0.75;;
16296;SDS011;8256;56.144;13.394;2023-04-03T13:36:17;2.30;;;0.80;;
16296;SDS011;8256;56.144;13.394;2023-04-03T13:39:19;3.00;;;1.00;;
16296;SDS011;8256;56.144;13.394;2023-04-03T13:42:16;2.63;;;0.90;;
16296;SDS011;8256;56.144;13.394;2023-04-03T13:45:22;2.25;;;0.75;;
16296;SDS011;8256;56.144;13.394;2023-04-03T13:48:11;3.03;;;0.68;;
16296;SDS011;8256;56.144;13.394;2023-04-03T13:51:02;2.70;;;0.93;;
16296;SDS011;8256;56.144;13.394;2023-04-03T13:53:55;2.38;;;0.77;;
16296;SDS011;8256;56.144;13.394;2023-04-03T13:56:42;2.75;;;1.08;;
16296;SDS011;8256;56.144;13.394;2023-04-03T13:59:29;2.97;;;1.20;;
16296;SDS011;8256;56.144;13.394;2023-04-03T14:02:28;3.70;;;1.42;;
16296;SDS011;8256;56.144;13.394;2023-04-03T14:05:14;3.10;;;1.60;;
16296;SDS011;8256;56.144;13.394;2023-04-03T14:08:01;4.15;;;1.77;;
16296;SDS011;8256;56.144;13.394;2023-04-03T14:10:47;3.50;;;1.90;;
16296;SDS011;8256;56.144;13.394;2023-04-03T14:13:35;3.50;;;2.00;;
16296;SDS011;8256;56.144;13.394;2023-04-03T14:16:22;3.50;;;2.40;;
16296;SDS011;8256;56.144;13.394;2023-04-03T14:19:14;4.97;;;2.60;;
16296;SDS011;8256;56.144;13.394;2023-04-03T14:22:07;3.50;;;2.45;;
16296;SDS011;8256;56.144;13.394;2023-04-03T14:24:56;3.50;;;2.40;;
16296;SDS011;8256;56.144;13.394;2023-04-03T14:27:44;3.30;;;1.85;;
16296;SDS011;8256;56.144;13.394;2023-04-03T14:30:30;3.40;;;1.92;;
16296;SDS011;8256;56.144;13.394;2023-04-03T14:33:18;3.63;;;1.60;;
16296;SDS011;8256;56.144;13.394;2023-04-03T14:36:14;3.35;;;1.75;;
16296;SDS011;8256;56.144;13.394;2023-04-03T14:39:00;3.10;;;1.50;;
16296;SDS011;8256;56.144;13.394;2023-04-03T14:41:46;3.00;;;1.35;;
16296;SDS011;8256;56.144;13.394;2023-04-03T14:44:31;3.88;;;1.33;;
16296;SDS011;8256;56.144;13.394;2023-04-03T14:47:21;4.53;;;1.70;;
16296;SDS011;8256;56.144;13.394;2023-04-03T14:50:11;3.08;;;1.33;;
16296;SDS011;8256;56.144;13.394;2023-04-03T14:52:58;3.20;;;1.50;;
16296;SDS011;8256;56.144;13.394;2023-04-03T14:55:47;3.00;;;1.45;;
16296;SDS011;8256;56.144;13.394;2023-04-03T14:58:32;3.33;;;1.73;;
16296;SDS011;8256;56.144;13.394;2023-04-03T15:01:18;3.10;;;1.50;;
16296;SDS011;8256;56.144;13.394;2023-04-03T15:04:14;3.10;;;1.48;;
16296;SDS011;8256;56.144;13.394;2023-04-03T15:06:59;2.88;;;1.30;;
16296;SDS011;8256;56.144;13.394;2023-04-03T15:09:45;2.80;;;1.20;;
16296;SDS011;8256;56.144;13.394;2023-04-03T15:12:30;2.85;;;1.05;;
16296;SDS011;8256;56.144;13.394;2023-04-03T15:15:17;3.10;;;1.30;;
16296;SDS011;8256;56.144;13.394;2023-04-03T15:18:03;4.78;;;1.30;;
16296;SDS011;8256;56.144;13.394;2023-04-03T15:20:48;3.08;;;1.30;;
16296;SDS011;8256;56.144;13.394;2023-04-03T15:23:34;2.80;;;1.10;;
16296;SDS011;8256;56.144;13.394;2023-04-03T15:26:20;3.22;;;1.48;;
16296;SDS011;8256;56.144;13.394;2023-04-03T15:29:05;3.40;;;1.40;;
16296;SDS011;8256;56.144;13.394;2023-04-03T15:31:51;3.00;;;1.40;;
16296;SDS011;8256;56.144;13.394;2023-04-03T15:34:38;4.03;;;1.73;;
16296;SDS011;8256;56.144;13.394;2023-04-03T15:37:24;9.60;;;1.67;;
16296;SDS011;8256;56.144;13.394;2023-04-03T15:40:09;3.00;;;1.40;;
16296;SDS011;8256;56.144;13.394;2023-04-03T15:42:55;2.97;;;1.40;;
16296;SDS011;8256;56.144;13.394;2023-04-03T15:45:41;3.15;;;1.52;;
16296;SDS011;8256;56.144;13.394;2023-04-03T15:48:27;4.35;;;1.70;;
16296;SDS011;8256;56.144;13.394;2023-04-03T15:51:12;5.47;;;1.55;;
16296;SDS011;8256;56.144;13.394;2023-04-03T15:53:58;3.90;;;1.60;;
16296;SDS011;8256;56.144;13.394;2023-04-03T15:56:43;2.83;;;1.30;;
16296;SDS011;8256;56.144;13.394;2023-04-03T15:59:29;3.00;;;1.20;;
16296;SDS011;8256;56.144;13.394;2023-04-03T16:02:17;5.07;;;1.42;;
16296;SDS011;8256;56.144;13.394;2023-04-03T16:05:02;3.13;;;1.23;;
16296;SDS011;8256;56.144;13.394;2023-04-03T16:07:48;2.60;;;0.93;;
16296;SDS011;8256;56.144;13.394;2023-04-03T16:10:34;2.30;;;0.70;;
16296;SDS011;8256;56.144;13.394;2023-04-03T16:13:20;2.17;;;0.68;;
16296;SDS011;8256;56.144;13.394;2023-04-03T16:16:06;2.72;;;0.77;;
16296;SDS011;8256;56.144;13.394;2023-04-03T16:18:52;2.15;;;0.70;;
16296;SDS011;8256;56.144;13.394;2023-04-03T16:21:38;3.38;;;0.80;;
16296;SDS011;8256;56.144;13.394;2023-04-03T16:24:24;2.53;;;0.70;;
16296;SDS011;8256;56.144;13.394;2023-04-03T16:27:09;2.38;;;0.80;;
16296;SDS011;8256;56.144;13.394;2023-04-03T16:29:55;2.15;;;0.60;;
16296;SDS011;8256;56.144;13.394;2023-04-03T16:32:40;2.00;;;0.60;;
16296;SDS011;8256;56.144;13.394;2023-04-03T16:35:27;9.60;;;0.85;;
16296;SDS011;8256;56.144;13.394;2023-04-03T16:38:12;1.63;;;0.40;;
16296;SDS011;8256;56.144;13.394;2023-04-03T16:40:58;2.53;;;0.50;;
16296;SDS011;8256;56.144;13.394;2023-04-03T16:43:44;1.83;;;0.47;;
16296;SDS011;8256;56.144;13.394;2023-04-03T16:46:30;1.80;;;0.50;;
16296;SDS011;8256;56.144;13.394;2023-04-03T16:49:15;2.47;;;0.40;;
16296;SDS011;8256;56.144;13.394;2023-04-03T16:52:01;1.80;;;0.40;;
16296;SDS011;8256;56.144;13.394;2023-04-03T16:54:47;2.15;;;0.55;;
16296;SDS011;8256;56.144;13.394;2023-04-03T16:57:33;3.08;;;0.60;;
16296;SDS011;8256;56.144;13.394;2023-04-03T17:00:18;2.63;;;0.60;;
16296;SDS011;8256;56.144;13.394;2023-04-03T17:03:04;1.63;;;0.30;;
16296;SDS011;8256;56.144;13.394;2023-04-03T17:05:49;2.00;;;0.40;;
16296;SDS011;8256;56.144;13.394;2023-04-03T17:08:35;1.42;;;0.40;;
16296;SDS011;8256;56.144;13.394;2023-04-03T17:11:21;4.10;;;0.65;;
16296;SDS011;8256;56.144;13.394;2023-04-03T17:14:07;1.13;;;0.40;;
16296;SDS011;8256;56.144;13.394;2023-04-03T17:16:52;1.30;;;0.43;;
16296;SDS011;8256;56.144;13.394;2023-04-03T17:19:38;1.17;;;0.60;;
16296;SDS011;8256;56.144;13.394;2023-04-03T17:22:24;0.40;;;0.10;;
16296;SDS011;8256;56.144;13.394;2023-04-03T17:25:10;0.40;;;0.10;;
16296;SDS011;8256;56.144;13.394;2023-04-03T17:27:56;0.55;;;0.10;;
16296;SDS011;8256;56.144;13.394;2023-04-03T17:30:41;0.45;;;0.10;;
16296;SDS011;8256;56.144;13.394;2023-04-03T17:33:27;0.50;;;0.10;;
16296;SDS011;8256;56.144;13.394;2023-04-03T17:36:15;0.40;;;0.10;;
16296;SDS011;8256;56.144;13.394;2023-04-03T17:39:01;0.22;;;0.00;;
16296;SDS011;8256;56.144;13.394;2023-04-03T17:41:46;0.30;;;0.00;;
16296;SDS011;8256;56.144;13.394;2023-04-03T17:44:33;0.30;;;0.00;;
16296;SDS011;8256;56.144;13.394;2023-04-03T17:47:19;0.10;;;0.00;;
16296;SDS011;8256;56.144;13.394;2023-04-03T17:50:05;0.20;;;0.00;;
16296;SDS011;8256;56.144;13.394;2023-04-03T17:52:51;0.40;;;0.00;;
16296;SDS011;8256;56.144;13.394;2023-04-03T17:55:37;0.17;;;0.00;;
16296;SDS011;8256;56.144;13.394;2023-04-03T17:58:22;0.43;;;0.10;;
16296;SDS011;8256;56.144;13.394;2023-04-03T18:01:15;0.20;;;0.00;;
16296;SDS011;8256;56.144;13.394;2023-04-03T18:04:02;0.00;;;0.00;;